OPA Logo
 
ASOS:
At:2020.09.27 1115 UTC
Wind:180° @ 5KT
Viz: 10 mile(s)
Sky: clear
Temp: 41 F (5 C)
DewP: 37 F (3 C)
RH: 86%
Baro: 30.37 in.
ob: KBDN 271115Z AUTO 18005KT 10SM CLR 05/03 A3037 RMK AO2

ASOS: KRDM
At:2020.09.27 1056 UTC
Wind:
Viz: 10 mile(s)
Sky: clear
Temp: 41.0 F (5.0 C)
DewP: 36.0 F (2.2 C)
RH: 82%
Baro: 30.34 in.
ob: KRDM 271056Z AUTO 00000KT 10SM CLR 05/02 A3034 RMK AO2 SLP270 T00500022
Apache-SSL Logo

Valid HTML 4.01!

Central Oregon OPA Chapter

Chapter Officers 2006:

President
Gary E. Miller
109 NW Wilmington Ave.
Bend OR 97701
541 382-8588
gem@rellim.com

Vice President:
Open

Secretary/Treasurer:
Don Wilfong
210 SE Cessna Dr
Bend OR 97702
541 389-1456
dwnw@bendbroadband.com


Web page by: gem@rellim.com